Time;durP1;ratioP1;P1;durP2;ratioP2;P2;SDS_P1;SDS_P2;PMS_P1;PMS_P2;Temp;Humidity;BMP_temperature;BMP_pressure;BME280_temperature;BME280_humidity;BME280_pressure;Samples;Min_cycle;Max_cycle;Signal;HPM_P1;HPM_P2
2022/03/21 00:01:35;;;;;;;45.33;16.02;;;;;;;2.68;61.58;101230.88;5006777;28;20042;-40
2022/03/21 00:04:03;;;;;;;43.97;16.90;;;;;;;2.65;62.85;101230.72;5004625;28;20045;-42
2022/03/21 00:06:30;;;;;;;42.20;15.73;;;;;;;2.63;62.64;101228.88;5003926;28;20050;-45
2022/03/21 00:08:57;;;;;;;45.40;16.90;;;;;;;2.60;61.94;101234.69;5002709;28;20089;-40
2022/03/21 00:11:24;;;;;;;40.72;14.88;;;;;;;2.50;62.29;101232.53;5006175;28;20609;-41
2022/03/21 00:13:53;;;;;;;41.55;16.92;;;;;;;2.42;61.94;101227.00;5004826;28;20046;-44
2022/03/21 00:16:21;;;;;;;41.30;17.35;;;;;;;2.35;62.00;101242.84;5010297;28;20052;-42
2022/03/21 00:18:49;;;;;;;37.53;15.43;;;;;;;2.25;62.59;101242.38;5008608;28;20133;-40
2022/03/21 00:21:17;;;;;;;36.85;15.27;;;;;;;2.19;62.17;101236.94;4984804;28;20043;-42
2022/03/21 00:23:45;;;;;;;44.75;16.75;;;;;;;2.17;62.64;101236.00;4981882;28;20050;-43
2022/03/21 00:26:12;;;;;;;39.92;15.90;;;;;;;2.15;62.79;101235.03;4986346;28;21788;-43
2022/03/21 00:28:39;;;;;;;34.42;13.85;;;;;;;2.15;63.59;101232.50;4988660;28;20396;-40
2022/03/21 00:31:06;;;;;;;35.15;13.82;;;;;;;2.15;63.20;101238.50;4980494;28;20398;-43
2022/03/21 00:33:34;;;;;;;38.40;16.13;;;;;;;2.16;63.20;101241.94;4993336;28;20047;-42
2022/03/21 00:36:01;;;;;;;39.22;15.57;;;;;;;2.16;63.46;101236.81;4999551;28;20053;-48
2022/03/21 00:38:28;;;;;;;41.42;15.68;;;;;;;2.16;63.19;101234.25;5002820;28;20054;-45
2022/03/21 00:40:55;;;;;;;36.22;15.90;;;;;;;2.15;63.76;101240.16;5005490;28;20073;-43
2022/03/21 00:43:23;;;;;;;37.28;15.02;;;;;;;2.14;62.00;101238.41;5001150;28;20045;-45
2022/03/21 00:45:52;;;;;;;39.30;16.02;;;;;;;2.12;62.87;101240.00;5004967;28;20054;-43
2022/03/21 00:48:21;;;;;;;37.20;15.80;;;;;;;2.11;62.63;101243.34;5000589;28;20072;-40
2022/03/21 00:50:48;;;;;;;43.17;15.82;;;;;;;2.10;62.58;101239.06;4996601;28;20050;-40
2022/03/21 00:53:16;;;;;;;40.17;15.23;;;;;;;2.08;62.17;101253.41;4983342;28;20049;-45
2022/03/21 00:55:44;;;;;;;31.30;13.50;;;;;;;2.03;62.92;101259.16;5005653;28;20048;-41
2022/03/21 00:58:11;;;;;;;39.95;14.52;;;;;;;1.91;62.89;101250.88;5004610;28;20054;-42
2022/03/21 01:00:38;;;;;;;37.35;14.05;;;;;;;1.82;62.14;101250.41;5002838;28;20068;-42
2022/03/21 01:03:06;;;;;;;41.95;16.67;;;;;;;1.73;62.80;101251.69;5003138;28;20041;-42
2022/03/21 01:05:33;;;;;;;40.05;14.90;;;;;;;1.69;62.77;101254.84;5003573;28;20077;-43
2022/03/21 01:08:02;;;;;;;45.38;16.23;;;;;;;1.66;63.95;101260.66;4997638;28;20658;-42
2022/03/21 01:10:32;;;;;;;36.95;15.43;;;;;;;1.64;63.40;101257.19;5004654;28;20049;-45
2022/03/21 01:13:00;;;;;;;34.30;14.75;;;;;;;1.67;63.60;101261.56;5004127;28;20046;-42
2022/03/21 01:15:46;;;;;;;41.10;15.00;;;;;;;1.67;64.46;101256.44;5002314;28;20127;-46
2022/03/21 01:18:14;;;;;;;36.42;14.45;;;;;;;1.66;63.42;101265.78;5000902;28;20058;-42
2022/03/21 01:20:41;;;;;;;37.65;15.63;;;;;;;1.66;63.81;101255.56;4996143;28;20061;-46
2022/03/21 01:23:08;;;;;;;39.35;14.05;;;;;;;1.66;63.85;101257.25;4999603;28;20381;-44
2022/03/21 01:25:53;;;;;;;37.30;14.70;;;;;;;1.64;63.46;101252.06;4995620;28;20099;-40
2022/03/21 01:28:21;;;;;;;38.92;15.80;;;;;;;1.63;63.82;101249.44;5000392;28;20046;-40
2022/03/21 01:30:48;;;;;;;35.80;14.05;;;;;;;1.64;63.91;101253.72;4997187;28;20045;-44
2022/03/21 01:33:15;;;;;;;43.42;15.00;;;;;;;1.63;63.67;101260.53;5003835;28;20046;-43
2022/03/21 01:35:41;;;;;;;43.25;18.77;;;;;;;1.64;64.44;101256.28;4997800;28;20572;-41
2022/03/21 01:38:09;;;;;;;39.15;15.10;;;;;;;1.63;63.32;101257.97;5000344;28;20042;-45
2022/03/21 01:40:35;;;;;;;35.92;14.68;;;;;;;1.60;63.99;101252.69;5001265;28;20052;-40
2022/03/21 01:43:08;;;;;;;46.40;16.45;;;;;;;1.58;64.22;101248.31;4997307;28;20092;-49
2022/03/21 01:45:35;;;;;;;42.08;18.13;;;;;;;1.56;64.40;101242.22;4999360;28;20046;-43
2022/03/21 01:48:02;;;;;;;43.42;16.83;;;;;;;1.56;64.06;101244.78;4994205;28;20046;-48
2022/03/21 01:50:29;;;;;;;37.00;16.27;;;;;;;1.53;63.73;101238.69;5000777;28;20054;-41
2022/03/21 01:55:43;;;;;;;39.75;17.55;;;;;;;1.52;64.55;101244.63;4998267;28;20100;-45
2022/03/21 01:55:43;;;;;;;46.08;16.90;;;;;;;1.52;63.71;101244.63;4999474;28;20100;-43
2022/03/21 01:58:13;;;;;;;42.38;16.75;;;;;;;1.51;64.65;101240.31;4998893;28;20108;-43
2022/03/21 02:00:42;;;;;;;39.63;17.05;;;;;;;1.49;63.44;101236.78;5001752;28;20096;-46
2022/03/21 02:03:08;;;;;;;45.67;18.25;;;;;;;1.50;64.53;101247.88;4996072;28;20057;-40
2022/03/21 02:05:37;;;;;;;43.10;18.05;;;;;;;1.50;64.88;101240.22;4993320;28;20509;-44
2022/03/21 02:08:04;;;;;;;49.08;18.48;;;;;;;1.50;63.84;101242.78;4994966;28;20055;-44
2022/03/21 02:10:31;;;;;;;48.78;16.33;;;;;;;1.49;65.04;101235.94;4999424;28;20053;-40
2022/03/21 02:12:58;;;;;;;37.20;15.85;;;;;;;1.47;65.07;101237.50;5001661;28;20096;-40
2022/03/21 02:15:25;;;;;;;52.25;17.80;;;;;;;1.46;64.13;101241.75;4997089;28;20046;-43
2022/03/21 02:17:59;;;;;;;42.90;17.15;;;;;;;1.45;65.48;101245.06;4996464;28;20054;-41
2022/03/21 02:20:31;;;;;;;44.85;15.35;;;;;;;1.43;64.16;101236.47;4996485;28;20406;-41
2022/03/21 02:23:38;;;;;;;41.60;17.65;;;;;;;1.38;64.93;101232.78;5001623;28;20053;-48
2022/03/21 02:33:56;;;;;;;51.45;19.58;;;;;;;1.24;64.67;101242.22;5008293;28;20403;-42
2022/03/21 02:36:25;;;;;;;43.10;17.85;;;;;;;1.18;65.26;101235.13;5003082;28;20050;-44
2022/03/21 02:38:54;;;;;;;46.17;18.95;;;;;;;1.15;64.39;101234.97;4998822;28;20053;-43
2022/03/21 02:41:21;;;;;;;41.35;17.33;;;;;;;1.14;65.05;101233.19;5003694;28;20104;-44
2022/03/21 02:44:03;;;;;;;50.08;18.30;;;;;;;1.10;65.45;101226.16;5003793;28;20081;-41
2022/03/21 02:46:30;;;;;;;50.42;18.00;;;;;;;1.07;65.07;101233.66;4999973;28;20054;-44
2022/03/21 02:48:58;;;;;;;40.47;17.05;;;;;;;1.06;65.27;101226.81;5000826;28;20129;-41
2022/03/21 02:51:27;;;;;;;49.10;16.80;;;;;;;1.04;65.00;101220.75;5002098;28;20136;-40
2022/03/21 02:53:54;;;;;;;46.90;17.92;;;;;;;1.03;64.86;101224.97;5000143;28;20769;-43
2022/03/21 02:56:21;;;;;;;45.00;18.92;;;;;;;1.01;65.85;101222.31;5004521;28;20101;-40
2022/03/21 02:58:48;;;;;;;48.88;18.00;;;;;;;0.99;65.48;101221.38;5004074;28;20054;-42
2022/03/21 03:01:17;;;;;;;37.92;17.15;;;;;;;0.97;64.96;101225.50;5000588;28;20062;-42
2022/03/21 03:03:45;;;;;;;39.22;17.55;;;;;;;0.94;65.20;101221.91;4990165;28;20046;-42
2022/03/21 03:06:12;;;;;;;46.30;17.92;;;;;;;0.92;64.47;101219.28;4990052;28;20051;-40
2022/03/21 03:08:40;;;;;;;46.88;19.42;;;;;;;0.91;65.67;101225.16;4982308;28;20079;-39
2022/03/21 03:11:07;;;;;;;50.40;18.17;;;;;;;0.91;65.51;101224.28;4981172;28;20081;-44
2022/03/21 03:13:33;;;;;;;43.70;18.00;;;;;;;0.89;64.74;101227.63;4981397;28;20050;-43
2022/03/21 03:16:00;;;;;;;42.28;17.10;;;;;;;0.88;65.88;101230.09;4982211;28;20101;-42
2022/03/21 03:18:27;;;;;;;49.65;17.42;;;;;;;0.86;64.94;101221.47;4983645;28;20137;-40
2022/03/21 03:20:55;;;;;;;43.33;17.30;;;;;;;0.85;65.87;101222.28;4981617;28;20055;-45
2022/03/21 03:23:26;;;;;;;46.88;17.77;;;;;;;0.85;65.50;101222.28;4981911;28;21264;-44
2022/03/21 03:25:58;;;;;;;41.42;18.35;;;;;;;0.85;65.72;101219.72;4978711;28;20046;-39
2022/03/21 03:28:25;;;;;;;52.20;18.67;;;;;;;0.85;65.56;101222.28;4993897;28;20042;-40
2022/03/21 03:31:14;;;;;;;42.63;17.13;;;;;;;0.83;65.30;101221.28;4978655;28;20053;-44
2022/03/21 03:33:42;;;;;;;52.22;18.67;;;;;;;0.82;65.66;101224.66;4978589;28;20046;-42
2022/03/21 03:36:08;;;;;;;41.05;17.50;;;;;;;0.80;65.54;101227.09;4979227;28;20231;-40
2022/03/21 03:38:35;;;;;;;44.78;16.65;;;;;;;0.79;65.87;101229.56;4980166;28;20050;-45
2022/03/21 03:41:01;;;;;;;43.85;16.98;;;;;;;0.78;65.95;101223.59;4981097;28;20066;-41
2022/03/21 03:43:29;;;;;;;45.22;18.13;;;;;;;0.77;64.97;101229.47;4976699;28;20109;-42
2022/03/21 03:45:57;;;;;;;47.58;17.98;;;;;;;0.80;65.88;101231.31;4969081;28;20043;-41
2022/03/21 03:48:26;;;;;;;48.63;19.08;;;;;;;0.82;66.18;101234.84;4968401;28;20070;-40
2022/03/21 03:50:52;;;;;;;45.30;16.67;;;;;;;0.80;65.21;101231.31;4967539;28;20399;-41
2022/03/21 03:53:19;;;;;;;45.78;18.65;;;;;;;0.80;65.98;101236.41;4965555;28;20105;-43
2022/03/21 03:55:47;;;;;;;43.95;17.40;;;;;;;0.79;65.72;101230.47;4967052;28;20057;-41
2022/03/21 03:58:31;;;;;;;49.25;18.90;;;;;;;0.79;65.42;101234.66;4987041;28;20049;-42
2022/03/21 04:00:57;;;;;;;44.50;17.15;;;;;;;0.76;66.22;101236.28;4988654;28;20081;-39
2022/03/21 04:06:12;;;;;;;53.60;17.48;;;;;;;0.63;66.10;101238.91;4987548;28;20109;-42
2022/03/21 04:08:39;;;;;;;39.92;15.10;;;;;;;0.54;65.86;101238.38;4985733;28;20108;-43
2022/03/21 04:11:06;;;;;;;42.92;16.88;;;;;;;0.45;65.42;101243.81;4985543;28;20050;-42
2022/03/21 04:13:32;;;;;;;42.72;17.98;;;;;;;0.40;65.69;101246.09;4986243;28;20482;-41
2022/03/21 04:15:59;;;;;;;41.28;18.45;;;;;;;0.33;65.80;101241.44;4986997;28;20120;-43
2022/03/21 04:18:26;;;;;;;40.10;17.73;;;;;;;0.28;66.40;101250.47;4982523;28;20047;-45
2022/03/21 04:21:12;;;;;;;43.65;17.60;;;;;;;0.22;65.85;101246.81;4984797;28;20667;-45
2022/03/21 04:23:39;;;;;;;41.42;16.55;;;;;;;0.23;65.79;101256.19;4987957;28;20047;-40
2022/03/21 04:26:05;;;;;;;41.35;18.40;;;;;;;0.22;66.05;101251.91;4985238;28;20050;-41
2022/03/21 04:28:32;;;;;;;38.38;16.17;;;;;;;0.19;66.33;101246.59;4988881;28;20054;-42
2022/03/21 04:30:58;;;;;;;44.38;18.33;;;;;;;0.19;66.92;101250.81;4986815;28;20104;-40
2022/03/21 04:33:25;;;;;;;44.70;18.40;;;;;;;0.17;66.47;101257.50;4987757;28;20049;-42
2022/03/21 04:35:51;;;;;;;44.35;17.63;;;;;;;0.16;66.63;101251.53;4986806;28;20074;-40
2022/03/21 04:38:19;;;;;;;46.80;17.10;;;;;;;0.13;66.32;101253.88;4984634;28;20173;-43
2022/03/21 04:40:48;;;;;;;44.30;16.50;;;;;;;0.13;66.13;101253.88;4987072;28;20054;-46
2022/03/21 04:43:17;;;;;;;43.15;16.00;;;;;;;0.08;66.05;101265.47;4988482;28;20694;-40
2022/03/21 04:45:45;;;;;;;49.58;17.55;;;;;;;0.05;66.32;101260.19;4985984;28;20079;-41
2022/03/21 04:48:12;;;;;;;42.03;16.95;;;;;;;0.02;66.18;101257.44;4984381;28;20100;-43
2022/03/21 04:50:39;;;;;;;41.22;17.20;;;;;;;-0.01;65.97;101264.16;4985100;28;20054;-39
2022/03/21 04:53:08;;;;;;;41.75;17.45;;;;;;;-0.02;66.07;101267.47;4983458;28;20541;-42
2022/03/21 04:55:35;;;;;;;41.53;16.40;;;;;;;-0.03;65.98;101265.69;4986842;28;20108;-42
2022/03/21 04:58:01;;;;;;;49.22;18.48;;;;;;;-0.04;66.14;101263.94;4986576;28;20058;-42
2022/03/21 05:00:28;;;;;;;44.70;17.23;;;;;;;-0.05;65.88;101274.03;4986570;28;20046;-42
2022/03/21 05:02:56;;;;;;;42.28;17.55;;;;;;;-0.07;66.22;101268.84;4987970;28;20108;-46
2022/03/21 05:05:24;;;;;;;48.13;17.92;;;;;;;-0.07;66.14;101270.53;4986270;28;20050;-45
2022/03/21 05:07:53;;;;;;;45.88;18.17;;;;;;;-0.07;66.45;101273.94;4979009;28;20055;-44
2022/03/21 05:10:22;;;;;;;42.92;17.25;;;;;;;-0.08;66.23;101281.50;4985302;28;20070;-41
2022/03/21 05:12:50;;;;;;;46.47;18.40;;;;;;;-0.09;66.60;101274.66;4974926;28;20047;-44
2022/03/21 05:15:18;;;;;;;43.22;18.60;;;;;;;-0.10;66.42;101283.94;4980141;28;20054;-40
2022/03/21 05:17:45;;;;;;;49.22;18.05;;;;;;;-0.11;66.76;101287.28;4964000;28;20106;-41
2022/03/21 05:20:16;;;;;;;41.55;18.40;;;;;;;-0.11;66.69;101292.38;4979177;28;20057;-41
2022/03/21 05:30:57;;;;;;;42.42;18.73;;;;;;;-0.14;66.90;101292.19;4965884;28;20047;-41
2022/03/21 05:31:07;;;;;;;38.00;17.40;;;;;;;-0.22;66.53;101294.28;4982496;28;20042;-40
2022/03/21 05:36:26;;;;;;;43.35;17.50;;;;;;;-0.23;66.45;101294.19;4970648;28;20046;-38
2022/03/21 05:38:53;;;;;;;43.13;17.42;;;;;;;-0.27;66.54;101291.44;4979982;28;20125;-42
2022/03/21 05:41:20;;;;;;;51.42;16.85;;;;;;;-0.27;66.57;101296.53;4984842;28;20050;-40
2022/03/21 05:43:46;;;;;;;47.13;16.48;;;;;;;-0.28;66.36;101301.53;4984840;28;20505;-42
2022/03/21 05:46:14;;;;;;;47.33;17.52;;;;;;;-0.31;66.91;101292.03;4985606;28;20108;-44
2022/03/21 05:51:34;;;;;;;44.15;17.98;;;;;;;-0.34;66.48;101302.03;4985538;28;20526;-39
2022/03/21 05:54:03;;;;;;;45.92;17.90;;;;;;;-0.34;66.59;101299.47;4956723;28;20055;-41
2022/03/21 05:56:30;;;;;;;46.53;17.73;;;;;;;-0.34;66.74;101294.38;4962850;28;20046;-43
2022/03/21 06:00:19;;;;;;;50.25;17.60;;;;;;;-0.33;66.78;101301.28;4965640;28;20078;-39
2022/03/21 06:01:44;;;;;;;43.63;16.83;;;;;;;-0.33;66.51;101302.91;4965878;28;20054;-42
2022/03/21 06:04:12;;;;;;;41.90;17.52;;;;;;;-0.35;66.85;101307.91;4961508;28;20058;-40
2022/03/21 06:06:38;;;;;;;41.80;15.77;;;;;;;-0.35;66.70;101307.91;4966297;28;20050;-38
2022/03/21 06:09:05;;;;;;;47.92;19.20;;;;;;;-0.35;67.40;101302.81;4964752;28;20051;-43
2022/03/21 06:11:32;;;;;;;48.20;17.77;;;;;;;-0.35;67.02;101305.38;4965241;28;20108;-43
2022/03/21 06:13:59;;;;;;;43.30;18.20;;;;;;;-0.35;67.13;101301.94;4964065;28;20039;-42
2022/03/21 06:16:25;;;;;;;43.45;17.67;;;;;;;-0.34;67.13;101311.34;4966941;28;20113;-43
2022/03/21 06:18:52;;;;;;;41.15;16.65;;;;;;;-0.33;66.90;101316.53;4964688;28;20566;-40
2022/03/21 06:21:19;;;;;;;46.22;17.83;;;;;;;-0.34;66.72;101314.75;4965300;28;20120;-39
2022/03/21 06:23:46;;;;;;;41.42;16.25;;;;;;;-0.30;66.93;101320.94;4965433;28;20051;-44
2022/03/21 06:26:14;;;;;;;45.22;16.80;;;;;;;-0.29;66.92;101313.41;4964298;28;20635;-41
2022/03/21 06:28:41;;;;;;;41.30;17.23;;;;;;;-0.27;67.08;101316.03;4965455;28;20058;-41
2022/03/21 06:31:07;;;;;;;52.83;18.20;;;;;;;-0.24;67.04;101320.44;4963813;28;20055;-40
2022/03/21 06:33:34;;;;;;;42.53;17.95;;;;;;;-0.20;66.75;101322.38;4964344;28;20702;-42
2022/03/21 06:36:02;;;;;;;43.08;17.30;;;;;;;-0.19;66.92;101319.94;4959964;28;20736;-43
2022/03/21 06:38:30;;;;;;;43.65;17.95;;;;;;;-0.13;66.88;101329.63;4962913;28;20054;-41
2022/03/21 06:40:57;;;;;;;44.25;16.15;;;;;;;-0.10;66.61;101327.25;4964352;28;20616;-39
2022/03/21 06:43:42;;;;;;;45.33;18.98;;;;;;;-0.05;66.68;101332.63;4965579;28;20050;-42
2022/03/21 06:46:09;;;;;;;42.15;18.20;;;;;;;-0.03;66.87;101337.03;4977807;28;20117;-44
2022/03/21 06:48:35;;;;;;;54.10;19.30;;;;;;;0.02;66.68;101344.06;4965646;28;20466;-44
2022/03/21 06:51:02;;;;;;;42.17;18.35;;;;;;;0.08;66.91;101341.91;4964724;28;20054;-43
2022/03/21 06:53:29;;;;;;;47.33;18.73;;;;;;;0.13;66.95;101337.97;4978631;28;20051;-42
2022/03/21 06:55:55;;;;;;;43.95;17.23;;;;;;;0.19;66.85;101343.44;4962390;28;20047;-41
2022/03/21 06:58:22;;;;;;;39.97;16.88;;;;;;;0.22;66.93;101338.53;4974334;28;20051;-42
2022/03/21 07:00:49;;;;;;;46.20;15.10;;;;;;;0.27;67.32;101350.69;4965873;28;20451;-45
2022/03/21 07:03:16;;;;;;;48.20;17.80;;;;;;;0.31;67.22;101342.44;4960778;28;20074;-40
2022/03/21 07:05:43;;;;;;;49.28;18.98;;;;;;;0.37;67.13;101347.88;4962210;28;20137;-40
2022/03/21 07:08:10;;;;;;;55.35;18.58;;;;;;;0.45;66.74;101356.00;4965661;28;20114;-40
2022/03/21 07:10:40;;;;;;;48.65;19.23;;;;;;;0.54;66.35;101350.56;4963871;28;20058;-41
2022/03/21 07:13:07;;;;;;;47.28;18.45;;;;;;;0.62;66.79;101360.44;4965461;28;20054;-42
2022/03/21 07:15:34;;;;;;;46.58;18.20;;;;;;;0.71;66.70;101357.53;4980491;28;20042;-38
2022/03/21 07:18:01;;;;;;;40.08;17.67;;;;;;;0.81;66.33;101358.09;4986473;28;20054;-42
2022/03/21 07:20:28;;;;;;;53.25;20.00;;;;;;;0.91;67.12;101365.47;4979928;28;20058;-42
2022/03/21 07:22:56;;;;;;;49.13;19.20;;;;;;;1.00;66.74;101367.66;4978907;28;20058;-41
2022/03/21 07:25:23;;;;;;;57.00;20.05;;;;;;;1.09;66.29;101367.31;4985298;28;20046;-41
2022/03/21 07:27:51;;;;;;;57.85;21.13;;;;;;;1.21;67.21;101362.91;4979813;28;20077;-43
2022/03/21 07:30:18;;;;;;;50.75;20.17;;;;;;;1.79;67.95;101369.50;4980811;28;20055;-45
2022/03/21 07:32:45;;;;;;;55.28;22.23;;;;;;;2.77;66.68;101378.81;4979783;28;20058;-40
2022/03/21 07:35:13;;;;;;;56.17;22.92;;;;;;;3.74;67.23;101380.91;4980263;28;20105;-41
2022/03/21 07:37:42;;;;;;;55.45;21.38;;;;;;;4.67;65.25;101373.03;4980110;28;20055;-47
2022/03/21 07:40:11;;;;;;;56.15;21.70;;;;;;;5.57;64.86;101371.53;4979421;28;20545;-40
2022/03/21 07:42:40;;;;;;;50.65;17.63;;;;;;;6.42;63.41;101371.28;4979921;28;20933;-41
2022/03/21 07:47:54;;;;;;;51.50;20.05;;;;;;;7.99;59.77;101371.97;4967937;28;20046;-48
2022/03/21 07:50:25;;;;;;;48.70;20.13;;;;;;;8.71;58.44;101377.44;4986160;28;20073;-44
2022/03/21 07:52:53;;;;;;;49.88;20.38;;;;;;;9.42;58.07;101372.25;4994467;28;20053;-43
2022/03/21 07:55:21;;;;;;;47.45;19.67;;;;;;;10.13;56.34;101374.66;4983853;28;20058;-41
2022/03/21 07:57:47;;;;;;;45.25;20.40;;;;;;;10.72;55.25;101378.41;4983269;28;20109;-44
2022/03/21 08:00:15;;;;;;;44.92;18.17;;;;;;;11.19;54.54;101381.78;4982013;28;20441;-47
2022/03/21 08:02:43;;;;;;;36.53;17.50;;;;;;;11.36;52.51;101373.41;4980950;28;20051;-43
2022/03/21 08:05:11;;;;;;;42.00;18.50;;;;;;;11.43;52.53;101385.63;4975880;28;20054;-42
2022/03/21 08:07:37;;;;;;;35.97;17.58;;;;;;;11.59;52.95;101391.03;4974489;28;20054;-44
2022/03/21 08:10:04;;;;;;;42.45;17.20;;;;;;;11.91;52.54;101383.69;4984027;28;20050;-46
2022/03/21 08:12:36;;;;;;;36.92;18.48;;;;;;;12.28;50.76;101388.50;4986424;28;20133;-45
2022/03/21 08:15:03;;;;;;;42.97;19.35;;;;;;;12.64;50.75;101386.31;4984039;28;20479;-40
2022/03/21 08:17:30;;;;;;;36.33;19.15;;;;;;;12.92;49.62;101388.28;4983601;28;20054;-41
2022/03/21 08:19:57;;;;;;;36.58;18.42;;;;;;;13.26;48.78;101383.38;4977725;28;20062;-42
2022/03/21 08:22:24;;;;;;;39.75;19.55;;;;;;;13.64;49.07;101388.88;4985103;28;20046;-42
2022/03/21 08:24:52;;;;;;;42.50;18.80;;;;;;;13.99;48.07;101396.00;4986863;28;20050;-42
2022/03/21 08:27:20;;;;;;;37.28;18.38;;;;;;;14.17;47.84;101391.72;4988544;28;20048;-48
2022/03/21 08:29:47;;;;;;;38.25;18.35;;;;;;;14.36;47.28;101392.66;4988454;28;20054;-43
2022/03/21 08:32:13;;;;;;;39.53;18.33;;;;;;;14.57;45.99;101391.84;4985294;28;20112;-41
2022/03/21 08:34:40;;;;;;;37.13;18.00;;;;;;;14.52;45.81;101394.44;4985671;28;20042;-47
2022/03/21 08:37:07;;;;;;;39.33;19.15;;;;;;;14.51;46.77;101386.63;4987350;28;20058;-44
2022/03/21 08:39:34;;;;;;;41.92;18.27;;;;;;;14.76;46.68;101397.09;4989472;28;20042;-45
2022/03/21 08:42:01;;;;;;;37.70;18.60;;;;;;;15.20;46.31;101399.75;4986372;28;20046;-45
2022/03/21 08:44:28;;;;;;;34.50;18.13;;;;;;;15.63;44.74;101397.09;4987395;28;20042;-43
2022/03/21 08:46:54;;;;;;;30.42;16.65;;;;;;;15.92;44.24;101404.00;4984705;28;20105;-43
2022/03/21 08:49:26;;;;;;;33.70;17.13;;;;;;;16.03;44.61;101396.16;4989252;28;20050;-45
2022/03/21 08:51:58;;;;;;;33.60;17.85;;;;;;;16.26;44.46;101399.53;4987889;28;20072;-45
2022/03/21 08:54:26;;;;;;;36.78;18.20;;;;;;;16.57;44.22;101399.34;4986336;28;20046;-44
2022/03/21 08:56:52;;;;;;;35.92;16.02;;;;;;;16.93;43.49;101394.72;4986095;28;20050;-47
2022/03/21 08:59:19;;;;;;;31.20;17.80;;;;;;;17.31;43.44;101399.69;4987204;28;20109;-48
2022/03/21 09:01:46;;;;;;;33.25;16.80;;;;;;;17.75;42.25;101405.38;4986108;28;20133;-45
2022/03/21 09:04:13;;;;;;;32.40;17.17;;;;;;;18.17;42.00;101398.81;4987753;28;20390;-47
2022/03/21 09:06:40;;;;;;;27.90;16.10;;;;;;;18.57;40.78;101392.13;4986439;28;20054;-46
2022/03/21 09:09:07;;;;;;;33.22;16.85;;;;;;;18.91;39.07;101399.47;4969271;28;20654;-48
2022/03/21 09:11:34;;;;;;;31.85;17.23;;;;;;;18.95;39.33;101401.16;4984765;28;20105;-47
2022/03/21 09:14:01;;;;;;;36.15;17.80;;;;;;;19.05;38.92;101396.63;4984910;28;20062;-50
2022/03/21 09:16:29;;;;;;;34.63;18.13;;;;;;;19.25;38.17;101400.72;4988195;28;20138;-44
2022/03/21 09:18:56;;;;;;;29.52;16.17;;;;;;;19.44;37.44;101396.00;4981474;28;20050;-49
2022/03/21 09:21:22;;;;;;;29.50;17.15;;;;;;;19.61;36.67;101394.81;4988781;28;20133;-46
2022/03/21 09:23:50;;;;;;;29.20;16.33;;;;;;;19.85;36.64;101397.84;4988939;28;20746;-44
2022/03/21 09:26:17;;;;;;;33.95;17.40;;;;;;;20.17;37.09;101393.72;4988516;28;20120;-48
2022/03/21 09:28:44;;;;;;;26.75;15.73;;;;;;;20.46;36.38;101394.00;4986064;28;20050;-51
2022/03/21 09:31:13;;;;;;;33.55;17.17;;;;;;;20.69;35.41;101401.34;4984277;28;20038;-46
2022/03/21 09:34:00;;;;;;;28.38;16.23;;;;;;;20.76;34.99;101397.66;4986119;28;20173;-45
2022/03/21 09:36:27;;;;;;;16.75;8.90;;;;;;;20.04;30.37;101393.13;4986817;28;20456;-46
2022/03/21 09:38:54;;;;;;;21.25;11.48;;;;;;;19.51;30.52;101395.00;4984619;28;20061;-45
2022/03/21 09:41:25;;;;;;;20.50;11.68;;;;;;;18.78;30.33;101390.09;4982452;28;20849;-47
2022/03/21 09:43:55;;;;;;;18.17;9.82;;;;;;;18.21;31.41;101387.41;4982933;28;21415;-46
2022/03/21 09:46:22;;;;;;;13.50;9.43;;;;;;;17.68;29.31;101388.88;4981256;28;20051;-53
2022/03/21 09:48:52;;;;;;;22.08;10.93;;;;;;;17.31;29.55;101384.00;4976553;28;20052;-49
2022/03/21 09:51:22;;;;;;;17.95;9.93;;;;;;;16.95;29.69;101377.28;4981387;28;20058;-46
2022/03/21 09:53:54;;;;;;;21.38;11.05;;;;;;;16.94;30.68;101375.56;4982558;28;20141;-48
2022/03/21 09:56:22;;;;;;;17.88;9.82;;;;;;;17.04;30.85;101375.47;4986113;28;20093;-56
2022/03/21 09:58:49;;;;;;;17.30;10.15;;;;;;;17.26;30.39;101384.03;4980115;28;20050;-52
2022/03/21 10:01:16;;;;;;;16.55;9.10;;;;;;;17.13;29.18;101380.69;4982364;28;20058;-46
2022/03/21 10:03:44;;;;;;;15.65;9.18;;;;;;;16.76;29.96;101383.53;4984327;28;20553;-41
2022/03/21 10:11:58;;;;;;;18.88;8.23;;;;;;;15.32;30.92;101381.47;5046127;27;20394;-43
2022/03/21 10:17:07;;;;;;;20.17;8.82;;;;;;;14.68;31.83;101377.94;5038354;28;20400;-45
2022/03/21 10:22:22;;;;;;;19.00;8.38;;;;;;;14.17;34.43;101381.28;5019485;27;20448;-42
2022/03/21 10:24:51;;;;;;;20.05;9.93;;;;;;;13.95;35.32;101376.88;5006084;28;20119;-47
2022/03/21 10:27:39;;;;;;;24.38;10.80;;;;;;;13.79;35.40;101365.53;4998240;28;20066;-44
2022/03/21 10:32:44;;;;;;;21.35;10.38;;;;;;;13.41;35.81;101374.78;5031263;28;20405;-45
2022/03/21 10:35:14;;;;;;;22.90;11.10;;;;;;;13.15;37.29;101377.22;4988256;28;20050;-45
2022/03/21 10:48:16;;;;;;;18.90;9.25;;;;;;;12.29;38.20;101374.66;5035757;27;20429;-42
2022/03/21 10:50:46;;;;;;;20.08;8.15;;;;;;;12.25;38.04;101366.81;5019757;28;20107;-42
2022/03/21 10:53:16;;;;;;;16.75;7.95;;;;;;;12.24;38.77;101371.16;5020913;28;20054;-44
2022/03/21 10:55:46;;;;;;;18.02;8.40;;;;;;;12.26;38.80;101366.81;5019905;28;20050;-44
2022/03/21 10:58:16;;;;;;;17.95;7.93;;;;;;;12.24;38.54;101365.97;5018890;28;20079;-45
2022/03/21 11:00:43;;;;;;;20.77;8.85;;;;;;;12.21;38.46;101360.72;5017038;28;20085;-42
2022/03/21 11:03:15;;;;;;;17.67;7.95;;;;;;;12.21;38.56;101360.72;5020093;28;20716;-49
2022/03/21 11:05:46;;;;;;;17.75;7.93;;;;;;;12.26;39.34;101364.22;5023796;28;20164;-47
2022/03/21 11:08:15;;;;;;;17.50;8.32;;;;;;;12.30;39.50;101362.56;5017325;28;20403;-47
2022/03/21 11:10:44;;;;;;;17.38;7.25;;;;;;;12.30;38.71;101354.75;5018860;28;20099;-43
2022/03/21 11:13:12;;;;;;;18.30;6.88;;;;;;;12.30;38.62;101362.56;5019498;28;20172;-44
2022/03/21 11:15:40;;;;;;;20.45;7.85;;;;;;;12.29;39.67;101359.06;5021310;28;20419;-41
2022/03/21 11:18:08;;;;;;;18.10;7.55;;;;;;;12.27;39.27;101357.31;5022166;28;20060;-41
2022/03/21 11:20:35;;;;;;;20.67;7.50;;;;;;;12.27;39.33;101355.59;5017391;28;20473;-45
2022/03/21 11:23:02;;;;;;;20.88;8.90;;;;;;;12.26;39.60;101353.84;5018718;28;20173;-43
2022/03/21 11:25:32;;;;;;;18.65;7.63;;;;;;;12.32;40.64;101353.03;5023254;28;20042;-43
2022/03/21 11:36:03;;;;;;;20.05;9.13;;;;;;;12.69;39.21;101349.94;5024522;28;20422;-45
2022/03/21 11:38:33;;;;;;;18.55;8.13;;;;;;;12.54;38.58;101348.06;4981606;28;20121;-43
2022/03/21 11:41:21;;;;;;;17.88;8.15;;;;;;;12.38;39.68;101347.03;4979538;28;20054;-41
2022/03/21 11:46:39;;;;;;;22.85;8.65;;;;;;;12.14;40.63;101358.91;5039401;27;20724;-47
2022/03/21 11:51:59;;;;;;;18.45;8.52;;;;;;;12.07;40.81;101358.84;5023167;27;20421;-41
2022/03/21 11:54:28;;;;;;;20.42;8.15;;;;;;;12.04;41.23;101358.78;5017511;28;20060;-43
2022/03/21 11:56:58;;;;;;;21.60;8.25;;;;;;;11.97;40.18;101362.13;5021322;28;20042;-43
2022/03/21 12:05:03;;;;;;;18.33;9.68;;;;;;;11.89;40.91;101363.78;5064914;27;20403;-40
2022/03/21 12:07:31;;;;;;;17.63;7.13;;;;;;;11.88;41.22;101351.63;5010521;28;20714;-43
2022/03/21 12:09:59;;;;;;;21.00;10.18;;;;;;;11.81;40.83;101346.38;5012277;28;20057;-40
2022/03/21 12:15:31;;;;;;;18.30;7.78;;;;;;;11.73;42.04;101348.00;5050359;27;20403;-45
2022/03/21 12:17:58;;;;;;;22.25;8.90;;;;;;;11.75;41.95;101353.22;5047183;28;20547;-41
2022/03/21 12:20:25;;;;;;;20.27;8.65;;;;;;;11.72;42.63;101343.63;5062853;28;20632;-41
2022/03/21 12:23:16;;;;;;;20.42;8.90;;;;;;;11.61;43.24;101353.00;5060106;28;20045;-43
2022/03/21 12:25:46;;;;;;;22.40;9.82;;;;;;;11.65;43.41;101347.03;5061882;28;20041;-41
2022/03/21 12:31:30;;;;;;;20.40;8.98;;;;;;;11.62;42.98;101352.16;5056523;28;20056;-47
2022/03/21 12:34:37;;;;;;;20.80;8.23;;;;;;;11.56;43.08;101351.19;5059801;28;20663;-46
2022/03/21 12:39:40;;;;;;;21.55;9.38;;;;;;;11.53;43.25;101351.19;5034713;27;20414;-44